sensor_id;sensor_type;location;lat;lon;timestamp;P1;P2;P0
61760;PMS5003;47664;51.660;-0.100;2022-11-27T00:00:48;2;1;
61760;PMS5003;47664;51.660;-0.100;2022-11-27T00:03:20;1;1;
61760;PMS5003;47664;51.660;-0.100;2022-11-27T00:05:52;0;0;
61760;PMS5003;47664;51.660;-0.100;2022-11-27T00:08:25;0;0;
61760;PMS5003;47664;51.660;-0.100;2022-11-27T00:11:02;4;1;
61760;PMS5003;47664;51.660;-0.100;2022-11-27T00:13:31;2;1;
61760;PMS5003;47664;51.660;-0.100;2022-11-27T00:16:03;3;1;
61760;PMS5003;47664;51.660;-0.100;2022-11-27T00:18:36;2;1;
61760;PMS5003;47664;51.660;-0.100;2022-11-27T00:21:09;2;2;
61760;PMS5003;47664;51.660;-0.100;2022-11-27T00:23:43;1;1;
61760;PMS5003;47664;51.660;-0.100;2022-11-27T00:26:16;0;0;
61760;PMS5003;47664;51.660;-0.100;2022-11-27T00:28:49;0;0;
61760;PMS5003;47664;51.660;-0.100;2022-11-27T00:31:22;2;1;
61760;PMS5003;47664;51.660;-0.100;2022-11-27T00:33:56;2;1;
61760;PMS5003;47664;51.660;-0.100;2022-11-27T00:36:32;0;0;
61760;PMS5003;47664;51.660;-0.100;2022-11-27T00:39:04;1;1;
61760;PMS5003;47664;51.660;-0.100;2022-11-27T00:41:36;2;1;
61760;PMS5003;47664;51.660;-0.100;2022-11-27T00:44:08;1;0;
61760;PMS5003;47664;51.660;-0.100;2022-11-27T00:46:40;4;1;
61760;PMS5003;47664;51.660;-0.100;2022-11-27T00:49:13;2;0;
61760;PMS5003;47664;51.660;-0.100;2022-11-27T00:51:45;1;1;
61760;PMS5003;47664;51.660;-0.100;2022-11-27T00:54:17;1;1;
61760;PMS5003;47664;51.660;-0.100;2022-11-27T00:56:49;2;0;
61760;PMS5003;47664;51.660;-0.100;2022-11-27T00:59:21;3;1;
61760;PMS5003;47664;51.660;-0.100;2022-11-27T01:01:54;2;0;
61760;PMS5003;47664;51.660;-0.100;2022-11-27T01:04:26;0;0;
61760;PMS5003;47664;51.660;-0.100;2022-11-27T01:06:58;0;0;
61760;PMS5003;47664;51.660;-0.100;2022-11-27T01:09:30;5;1;
61760;PMS5003;47664;51.660;-0.100;2022-11-27T01:12:02;1;0;
61760;PMS5003;47664;51.660;-0.100;2022-11-27T01:14:34;2;0;
61760;PMS5003;47664;51.660;-0.100;2022-11-27T01:17:06;1;1;
61760;PMS5003;47664;51.660;-0.100;2022-11-27T01:19:38;2;0;
61760;PMS5003;47664;51.660;-0.100;2022-11-27T01:22:10;0;0;
61760;PMS5003;47664;51.660;-0.100;2022-11-27T01:24:43;0;0;
61760;PMS5003;47664;51.660;-0.100;2022-11-27T01:27:15;1;0;
61760;PMS5003;47664;51.660;-0.100;2022-11-27T01:29:47;2;0;
61760;PMS5003;47664;51.660;-0.100;2022-11-27T01:32:19;0;0;
61760;PMS5003;47664;51.660;-0.100;2022-11-27T01:34:51;2;1;
61760;PMS5003;47664;51.660;-0.100;2022-11-27T01:37:23;0;0;
61760;PMS5003;47664;51.660;-0.100;2022-11-27T01:39:55;0;0;
61760;PMS5003;47664;51.660;-0.100;2022-11-27T01:42:27;1;1;
61760;PMS5003;47664;51.660;-0.100;2022-11-27T01:44:59;1;1;
61760;PMS5003;47664;51.660;-0.100;2022-11-27T01:47:36;4;1;
61760;PMS5003;47664;51.660;-0.100;2022-11-27T01:50:10;1;1;
61760;PMS5003;47664;51.660;-0.100;2022-11-27T01:52:43;0;0;
61760;PMS5003;47664;51.660;-0.100;2022-11-27T01:55:17;1;1;
61760;PMS5003;47664;51.660;-0.100;2022-11-27T01:57:50;3;1;
61760;PMS5003;47664;51.660;-0.100;2022-11-27T02:00:20;1;0;
61760;PMS5003;47664;51.660;-0.100;2022-11-27T02:02:53;2;1;
61760;PMS5003;47664;51.660;-0.100;2022-11-27T02:05:26;1;0;
61760;PMS5003;47664;51.660;-0.100;2022-11-27T02:07:58;2;0;
61760;PMS5003;47664;51.660;-0.100;2022-11-27T02:10:36;2;1;
61760;PMS5003;47664;51.660;-0.100;2022-11-27T02:13:12;0;0;
61760;PMS5003;47664;51.660;-0.100;2022-11-27T02:15:50;1;1;
61760;PMS5003;47664;51.660;-0.100;2022-11-27T02:18:24;4;2;
61760;PMS5003;47664;51.660;-0.100;2022-11-27T02:20:59;1;0;
61760;PMS5003;47664;51.660;-0.100;2022-11-27T02:23:44;1;1;
61760;PMS5003;47664;51.660;-0.100;2022-11-27T02:26:32;0;0;
61760;PMS5003;47664;51.660;-0.100;2022-11-27T02:29:15;0;0;
61760;PMS5003;47664;51.660;-0.100;2022-11-27T02:31:51;0;0;
61760;PMS5003;47664;51.660;-0.100;2022-11-27T02:34:27;3;1;
61760;PMS5003;47664;51.660;-0.100;2022-11-27T02:37:02;2;2;
61760;PMS5003;47664;51.660;-0.100;2022-11-27T02:39:36;0;0;
61760;PMS5003;47664;51.660;-0.100;2022-11-27T02:42:16;0;0;
61760;PMS5003;47664;51.660;-0.100;2022-11-27T02:44:48;3;1;
61760;PMS5003;47664;51.660;-0.100;2022-11-27T02:47:25;1;1;
61760;PMS5003;47664;51.660;-0.100;2022-11-27T02:49:57;0;0;
61760;PMS5003;47664;51.660;-0.100;2022-11-27T02:52:31;2;0;
61760;PMS5003;47664;51.660;-0.100;2022-11-27T02:55:06;2;1;
61760;PMS5003;47664;51.660;-0.100;2022-11-27T02:57:36;0;0;
61760;PMS5003;47664;51.660;-0.100;2022-11-27T03:00:12;0;0;
61760;PMS5003;47664;51.660;-0.100;2022-11-27T03:02:45;0;0;
61760;PMS5003;47664;51.660;-0.100;2022-11-27T03:05:19;0;0;
61760;PMS5003;47664;51.660;-0.100;2022-11-27T03:07:55;1;0;
61760;PMS5003;47664;51.660;-0.100;2022-11-27T03:10:28;0;0;
61760;PMS5003;47664;51.660;-0.100;2022-11-27T03:13:05;1;1;
61760;PMS5003;47664;51.660;-0.100;2022-11-27T03:15:38;1;1;
61760;PMS5003;47664;51.660;-0.100;2022-11-27T03:18:14;3;0;
61760;PMS5003;47664;51.660;-0.100;2022-11-27T03:20:50;1;1;
61760;PMS5003;47664;51.660;-0.100;2022-11-27T03:23:29;0;0;
61760;PMS5003;47664;51.660;-0.100;2022-11-27T03:26:01;2;2;
61760;PMS5003;47664;51.660;-0.100;2022-11-27T03:28:33;1;0;
61760;PMS5003;47664;51.660;-0.100;2022-11-27T03:31:08;1;1;
61760;PMS5003;47664;51.660;-0.100;2022-11-27T03:33:46;0;0;
61760;PMS5003;47664;51.660;-0.100;2022-11-27T03:36:20;3;1;
61760;PMS5003;47664;51.660;-0.100;2022-11-27T03:38:52;0;0;
61760;PMS5003;47664;51.660;-0.100;2022-11-27T03:41:26;1;1;
61760;PMS5003;47664;51.660;-0.100;2022-11-27T03:44:05;0;0;
61760;PMS5003;47664;51.660;-0.100;2022-11-27T03:46:39;4;0;
61760;PMS5003;47664;51.660;-0.100;2022-11-27T03:49:17;2;0;
61760;PMS5003;47664;51.660;-0.100;2022-11-27T03:52:01;2;0;
61760;PMS5003;47664;51.660;-0.100;2022-11-27T03:54:34;0;0;
61760;PMS5003;47664;51.660;-0.100;2022-11-27T03:57:14;1;0;
61760;PMS5003;47664;51.660;-0.100;2022-11-27T03:59:46;1;1;
61760;PMS5003;47664;51.660;-0.100;2022-11-27T04:02:26;0;0;
61760;PMS5003;47664;51.660;-0.100;2022-11-27T04:04:55;2;0;
61760;PMS5003;47664;51.660;-0.100;2022-11-27T04:07:28;1;1;
61760;PMS5003;47664;51.660;-0.100;2022-11-27T04:10:00;0;0;
61760;PMS5003;47664;51.660;-0.100;2022-11-27T04:12:33;1;0;
61760;PMS5003;47664;51.660;-0.100;2022-11-27T04:15:07;1;0;
61760;PMS5003;47664;51.660;-0.100;2022-11-27T04:17:39;0;0;
61760;PMS5003;47664;51.660;-0.100;2022-11-27T04:20:11;1;1;
61760;PMS5003;47664;51.660;-0.100;2022-11-27T04:22:44;0;0;
61760;PMS5003;47664;51.660;-0.100;2022-11-27T04:25:16;0;0;
61760;PMS5003;47664;51.660;-0.100;2022-11-27T04:27:49;1;0;
61760;PMS5003;47664;51.660;-0.100;2022-11-27T04:30:21;3;3;
61760;PMS5003;47664;51.660;-0.100;2022-11-27T04:32:53;0;0;
61760;PMS5003;47664;51.660;-0.100;2022-11-27T04:35:25;0;0;
61760;PMS5003;47664;51.660;-0.100;2022-11-27T04:37:58;1;1;
61760;PMS5003;47664;51.660;-0.100;2022-11-27T04:40:29;0;0;
61760;PMS5003;47664;51.660;-0.100;2022-11-27T04:43:01;1;0;
61760;PMS5003;47664;51.660;-0.100;2022-11-27T04:45:33;2;1;
61760;PMS5003;47664;51.660;-0.100;2022-11-27T04:48:06;0;0;
61760;PMS5003;47664;51.660;-0.100;2022-11-27T04:50:38;0;0;
61760;PMS5003;47664;51.660;-0.100;2022-11-27T04:53:11;1;1;
61760;PMS5003;47664;51.660;-0.100;2022-11-27T04:55:43;0;0;
61760;PMS5003;47664;51.660;-0.100;2022-11-27T04:58:16;2;1;
61760;PMS5003;47664;51.660;-0.100;2022-11-27T05:00:48;0;0;
61760;PMS5003;47664;51.660;-0.100;2022-11-27T05:03:20;2;1;
61760;PMS5003;47664;51.660;-0.100;2022-11-27T05:05:53;0;0;
61760;PMS5003;47664;51.660;-0.100;2022-11-27T05:08:27;0;0;
61760;PMS5003;47664;51.660;-0.100;2022-11-27T05:11:00;1;1;
61760;PMS5003;47664;51.660;-0.100;2022-11-27T05:13:33;0;0;
61760;PMS5003;47664;51.660;-0.100;2022-11-27T05:16:06;2;0;
61760;PMS5003;47664;51.660;-0.100;2022-11-27T05:18:38;1;1;
61760;PMS5003;47664;51.660;-0.100;2022-11-27T05:21:10;2;0;
61760;PMS5003;47664;51.660;-0.100;2022-11-27T05:23:43;1;1;
61760;PMS5003;47664;51.660;-0.100;2022-11-27T05:26:15;2;0;
61760;PMS5003;47664;51.660;-0.100;2022-11-27T05:28:47;1;1;
61760;PMS5003;47664;51.660;-0.100;2022-11-27T05:31:19;0;0;
61760;PMS5003;47664;51.660;-0.100;2022-11-27T05:33:51;1;1;
61760;PMS5003;47664;51.660;-0.100;2022-11-27T05:36:23;2;2;
61760;PMS5003;47664;51.660;-0.100;2022-11-27T05:38:56;3;3;
61760;PMS5003;47664;51.660;-0.100;2022-11-27T05:41:30;0;0;
61760;PMS5003;47664;51.660;-0.100;2022-11-27T05:44:05;0;0;
61760;PMS5003;47664;51.660;-0.100;2022-11-27T05:46:37;1;1;
61760;PMS5003;47664;51.660;-0.100;2022-11-27T05:49:10;1;1;
61760;PMS5003;47664;51.660;-0.100;2022-11-27T05:51:42;1;1;
61760;PMS5003;47664;51.660;-0.100;2022-11-27T05:54:14;1;1;
61760;PMS5003;47664;51.660;-0.100;2022-11-27T05:56:47;1;1;
61760;PMS5003;47664;51.660;-0.100;2022-11-27T05:59:19;1;1;
61760;PMS5003;47664;51.660;-0.100;2022-11-27T06:01:51;2;2;
61760;PMS5003;47664;51.660;-0.100;2022-11-27T06:04:23;0;0;
61760;PMS5003;47664;51.660;-0.100;2022-11-27T06:06:57;2;2;
61760;PMS5003;47664;51.660;-0.100;2022-11-27T06:09:30;0;0;
61760;PMS5003;47664;51.660;-0.100;2022-11-27T06:12:03;0;0;
61760;PMS5003;47664;51.660;-0.100;2022-11-27T06:14:35;1;1;
61760;PMS5003;47664;51.660;-0.100;2022-11-27T06:17:07;2;2;
61760;PMS5003;47664;51.660;-0.100;2022-11-27T06:19:39;2;2;
61760;PMS5003;47664;51.660;-0.100;2022-11-27T06:22:11;2;2;
61760;PMS5003;47664;51.660;-0.100;2022-11-27T06:24:43;1;1;
61760;PMS5003;47664;51.660;-0.100;2022-11-27T06:27:16;2;2;
61760;PMS5003;47664;51.660;-0.100;2022-11-27T06:29:48;1;1;
61760;PMS5003;47664;51.660;-0.100;2022-11-27T06:32:20;4;3;
61760;PMS5003;47664;51.660;-0.100;2022-11-27T06:34:52;1;1;
61760;PMS5003;47664;51.660;-0.100;2022-11-27T06:37:24;3;1;
61760;PMS5003;47664;51.660;-0.100;2022-11-27T06:39:56;1;1;
61760;PMS5003;47664;51.660;-0.100;2022-11-27T06:42:29;1;1;
61760;PMS5003;47664;51.660;-0.100;2022-11-27T06:45:02;1;1;
61760;PMS5003;47664;51.660;-0.100;2022-11-27T06:47:34;0;0;
61760;PMS5003;47664;51.660;-0.100;2022-11-27T06:50:07;1;1;
61760;PMS5003;47664;51.660;-0.100;2022-11-27T06:52:39;1;1;
61760;PMS5003;47664;51.660;-0.100;2022-11-27T06:55:11;1;1;
61760;PMS5003;47664;51.660;-0.100;2022-11-27T06:57:43;1;0;
61760;PMS5003;47664;51.660;-0.100;2022-11-27T07:00:16;0;0;
61760;PMS5003;47664;51.660;-0.100;2022-11-27T07:02:52;1;1;
61760;PMS5003;47664;51.660;-0.100;2022-11-27T07:05:19;1;1;
61760;PMS5003;47664;51.660;-0.100;2022-11-27T07:07:51;3;0;
61760;PMS5003;47664;51.660;-0.100;2022-11-27T07:10:24;0;0;
61760;PMS5003;47664;51.660;-0.100;2022-11-27T07:12:58;2;1;
61760;PMS5003;47664;51.660;-0.100;2022-11-27T07:15:30;0;0;
61760;PMS5003;47664;51.660;-0.100;2022-11-27T07:18:03;0;0;
61760;PMS5003;47664;51.660;-0.100;2022-11-27T07:20:35;0;0;
61760;PMS5003;47664;51.660;-0.100;2022-11-27T07:23:07;1;1;
61760;PMS5003;47664;51.660;-0.100;2022-11-27T07:25:39;0;0;
61760;PMS5003;47664;51.660;-0.100;2022-11-27T07:28:11;1;1;
61760;PMS5003;47664;51.660;-0.100;2022-11-27T07:30:43;1;1;
61760;PMS5003;47664;51.660;-0.100;2022-11-27T07:33:20;3;2;
61760;PMS5003;47664;51.660;-0.100;2022-11-27T07:35:56;3;1;
61760;PMS5003;47664;51.660;-0.100;2022-11-27T07:38:24;3;1;
61760;PMS5003;47664;51.660;-0.100;2022-11-27T07:40:57;1;1;
61760;PMS5003;47664;51.660;-0.100;2022-11-27T07:43:31;3;3;
61760;PMS5003;47664;51.660;-0.100;2022-11-27T07:46:05;3;3;
61760;PMS5003;47664;51.660;-0.100;2022-11-27T07:48:38;4;2;
61760;PMS5003;47664;51.660;-0.100;2022-11-27T07:51:11;4;2;
61760;PMS5003;47664;51.660;-0.100;2022-11-27T07:53:45;1;1;
61760;PMS5003;47664;51.660;-0.100;2022-11-27T07:56:17;1;1;
61760;PMS5003;47664;51.660;-0.100;2022-11-27T07:58:49;4;3;
61760;PMS5003;47664;51.660;-0.100;2022-11-27T08:01:22;1;1;
61760;PMS5003;47664;51.660;-0.100;2022-11-27T08:03:54;2;2;
61760;PMS5003;47664;51.660;-0.100;2022-11-27T08:06:26;4;4;
61760;PMS5003;47664;51.660;-0.100;2022-11-27T08:08:59;3;3;
61760;PMS5003;47664;51.660;-0.100;2022-11-27T08:11:31;3;3;
61760;PMS5003;47664;51.660;-0.100;2022-11-27T08:14:06;1;1;
61760;PMS5003;47664;51.660;-0.100;2022-11-27T08:16:38;2;1;
61760;PMS5003;47664;51.660;-0.100;2022-11-27T08:19:11;6;6;
61760;PMS5003;47664;51.660;-0.100;2022-11-27T08:21:43;1;1;
61760;PMS5003;47664;51.660;-0.100;2022-11-27T08:24:15;4;4;
61760;PMS5003;47664;51.660;-0.100;2022-11-27T08:26:47;4;2;
61760;PMS5003;47664;51.660;-0.100;2022-11-27T08:29:19;3;3;
61760;PMS5003;47664;51.660;-0.100;2022-11-27T08:31:51;4;4;
61760;PMS5003;47664;51.660;-0.100;2022-11-27T08:34:24;3;3;
61760;PMS5003;47664;51.660;-0.100;2022-11-27T08:36:56;5;3;
61760;PMS5003;47664;51.660;-0.100;2022-11-27T08:39:29;2;2;
61760;PMS5003;47664;51.660;-0.100;2022-11-27T08:42:01;2;1;
61760;PMS5003;47664;51.660;-0.100;2022-11-27T08:44:33;4;2;
61760;PMS5003;47664;51.660;-0.100;2022-11-27T08:47:05;4;3;
61760;PMS5003;47664;51.660;-0.100;2022-11-27T08:49:37;4;4;
61760;PMS5003;47664;51.660;-0.100;2022-11-27T08:52:09;9;9;
61760;PMS5003;47664;51.660;-0.100;2022-11-27T08:54:41;12;12;
61760;PMS5003;47664;51.660;-0.100;2022-11-27T08:57:15;6;6;
61760;PMS5003;47664;51.660;-0.100;2022-11-27T08:59:46;11;10;
61760;PMS5003;47664;51.660;-0.100;2022-11-27T09:02:18;17;16;
61760;PMS5003;47664;51.660;-0.100;2022-11-27T09:04:50;10;7;
61760;PMS5003;47664;51.660;-0.100;2022-11-27T09:07:23;8;8;
61760;PMS5003;47664;51.660;-0.100;2022-11-27T09:09:55;6;6;
61760;PMS5003;47664;51.660;-0.100;2022-11-27T09:12:27;7;7;
61760;PMS5003;47664;51.660;-0.100;2022-11-27T09:15:00;5;5;
61760;PMS5003;47664;51.660;-0.100;2022-11-27T09:17:33;5;5;
61760;PMS5003;47664;51.660;-0.100;2022-11-27T09:20:06;7;6;
61760;PMS5003;47664;51.660;-0.100;2022-11-27T09:22:38;4;4;
61760;PMS5003;47664;51.660;-0.100;2022-11-27T09:25:11;5;5;
61760;PMS5003;47664;51.660;-0.100;2022-11-27T09:27:43;9;7;
61760;PMS5003;47664;51.660;-0.100;2022-11-27T09:30:16;5;5;
61760;PMS5003;47664;51.660;-0.100;2022-11-27T09:32:47;6;4;
61760;PMS5003;47664;51.660;-0.100;2022-11-27T09:35:20;7;5;
61760;PMS5003;47664;51.660;-0.100;2022-11-27T09:37:52;5;5;
61760;PMS5003;47664;51.660;-0.100;2022-11-27T09:40:24;8;8;
61760;PMS5003;47664;51.660;-0.100;2022-11-27T09:42:57;7;4;
61760;PMS5003;47664;51.660;-0.100;2022-11-27T09:45:31;3;3;
61760;PMS5003;47664;51.660;-0.100;2022-11-27T09:48:08;12;9;
61760;PMS5003;47664;51.660;-0.100;2022-11-27T09:50:43;7;7;
61760;PMS5003;47664;51.660;-0.100;2022-11-27T09:53:20;6;4;
61760;PMS5003;47664;51.660;-0.100;2022-11-27T09:55:52;6;6;
61760;PMS5003;47664;51.660;-0.100;2022-11-27T09:58:33;5;4;
61760;PMS5003;47664;51.660;-0.100;2022-11-27T10:01:08;7;7;
61760;PMS5003;47664;51.660;-0.100;2022-11-27T10:03:37;7;7;
61760;PMS5003;47664;51.660;-0.100;2022-11-27T10:06:15;10;7;
61760;PMS5003;47664;51.660;-0.100;2022-11-27T10:08:51;7;6;
61760;PMS5003;47664;51.660;-0.100;2022-11-27T10:11:28;7;6;
61760;PMS5003;47664;51.660;-0.100;2022-11-27T10:14:13;4;4;
61760;PMS5003;47664;51.660;-0.100;2022-11-27T10:16:51;7;7;
61760;PMS5003;47664;51.660;-0.100;2022-11-27T10:19:28;9;9;
61760;PMS5003;47664;51.660;-0.100;2022-11-27T10:22:04;13;10;
61760;PMS5003;47664;51.660;-0.100;2022-11-27T10:24:41;11;8;
61760;PMS5003;47664;51.660;-0.100;2022-11-27T10:27:16;13;13;
61760;PMS5003;47664;51.660;-0.100;2022-11-27T10:29:49;14;13;
61760;PMS5003;47664;51.660;-0.100;2022-11-27T10:32:26;8;7;
61760;PMS5003;47664;51.660;-0.100;2022-11-27T10:35:00;12;8;
61760;PMS5003;47664;51.660;-0.100;2022-11-27T10:37:38;9;7;
61760;PMS5003;47664;51.660;-0.100;2022-11-27T10:40:16;10;8;
61760;PMS5003;47664;51.660;-0.100;2022-11-27T10:42:49;10;10;
61760;PMS5003;47664;51.660;-0.100;2022-11-27T10:45:27;10;9;
61760;PMS5003;47664;51.660;-0.100;2022-11-27T10:48:03;8;8;
61760;PMS5003;47664;51.660;-0.100;2022-11-27T10:50:36;9;9;
61760;PMS5003;47664;51.660;-0.100;2022-11-27T10:53:09;9;9;
61760;PMS5003;47664;51.660;-0.100;2022-11-27T10:55:54;11;10;
61760;PMS5003;47664;51.660;-0.100;2022-11-27T10:58:31;15;13;
61760;PMS5003;47664;51.660;-0.100;2022-11-27T11:01:07;15;12;
61760;PMS5003;47664;51.660;-0.100;2022-11-27T11:03:40;12;12;
61760;PMS5003;47664;51.660;-0.100;2022-11-27T11:06:13;17;13;
61760;PMS5003;47664;51.660;-0.100;2022-11-27T11:08:48;15;12;
61760;PMS5003;47664;51.660;-0.100;2022-11-27T11:11:27;12;12;
61760;PMS5003;47664;51.660;-0.100;2022-11-27T11:13:59;14;10;
61760;PMS5003;47664;51.660;-0.100;2022-11-27T11:16:41;14;12;
61760;PMS5003;47664;51.660;-0.100;2022-11-27T11:19:22;12;12;
61760;PMS5003;47664;51.660;-0.100;2022-11-27T11:21:51;13;10;
61760;PMS5003;47664;51.660;-0.100;2022-11-27T11:24:24;12;10;
61760;PMS5003;47664;51.660;-0.100;2022-11-27T11:27:03;14;11;
61760;PMS5003;47664;51.660;-0.100;2022-11-27T11:29:39;11;11;
61760;PMS5003;47664;51.660;-0.100;2022-11-27T11:32:14;9;9;
61760;PMS5003;47664;51.660;-0.100;2022-11-27T11:34:49;13;11;
61760;PMS5003;47664;51.660;-0.100;2022-11-27T11:37:25;12;9;
61760;PMS5003;47664;51.660;-0.100;2022-11-27T11:40:00;15;12;
61760;PMS5003;47664;51.660;-0.100;2022-11-27T11:42:35;10;10;
61760;PMS5003;47664;51.660;-0.100;2022-11-27T11:45:18;12;11;
61760;PMS5003;47664;51.660;-0.100;2022-11-27T11:47:53;10;8;
61760;PMS5003;47664;51.660;-0.100;2022-11-27T11:50:27;12;11;
61760;PMS5003;47664;51.660;-0.100;2022-11-27T11:53:06;15;12;
61760;PMS5003;47664;51.660;-0.100;2022-11-27T11:55:45;10;10;
61760;PMS5003;47664;51.660;-0.100;2022-11-27T11:58:28;11;10;
61760;PMS5003;47664;51.660;-0.100;2022-11-27T12:01:13;11;9;
61760;PMS5003;47664;51.660;-0.100;2022-11-27T12:03:58;14;12;
61760;PMS5003;47664;51.660;-0.100;2022-11-27T12:06:36;12;10;
61760;PMS5003;47664;51.660;-0.100;2022-11-27T12:09:23;12;10;
61760;PMS5003;47664;51.660;-0.100;2022-11-27T12:12:02;16;14;
61760;PMS5003;47664;51.660;-0.100;2022-11-27T12:14:40;24;23;
61760;PMS5003;47664;51.660;-0.100;2022-11-27T12:17:18;28;25;
61760;PMS5003;47664;51.660;-0.100;2022-11-27T12:20:01;18;17;
61760;PMS5003;47664;51.660;-0.100;2022-11-27T12:22:52;20;18;
61760;PMS5003;47664;51.660;-0.100;2022-11-27T12:25:39;11;11;
61760;PMS5003;47664;51.660;-0.100;2022-11-27T12:28:20;18;16;
61760;PMS5003;47664;51.660;-0.100;2022-11-27T12:31:00;13;11;
61760;PMS5003;47664;51.660;-0.100;2022-11-27T12:33:41;9;8;
61760;PMS5003;47664;51.660;-0.100;2022-11-27T12:36:17;13;11;
61760;PMS5003;47664;51.660;-0.100;2022-11-27T12:38:55;13;8;
61760;PMS5003;47664;51.660;-0.100;2022-11-27T12:41:38;12;9;
61760;PMS5003;47664;51.660;-0.100;2022-11-27T12:44:16;7;7;
61760;PMS5003;47664;51.660;-0.100;2022-11-27T12:46:53;14;11;
61760;PMS5003;47664;51.660;-0.100;2022-11-27T12:49:25;23;19;
61760;PMS5003;47664;51.660;-0.100;2022-11-27T12:51:59;13;11;
61760;PMS5003;47664;51.660;-0.100;2022-11-27T12:54:35;16;16;
61760;PMS5003;47664;51.660;-0.100;2022-11-27T12:57:12;13;11;
61760;PMS5003;47664;51.660;-0.100;2022-11-27T12:59:48;15;13;
61760;PMS5003;47664;51.660;-0.100;2022-11-27T13:02:25;17;14;
61760;PMS5003;47664;51.660;-0.100;2022-11-27T13:04:59;9;7;
61760;PMS5003;47664;51.660;-0.100;2022-11-27T13:07:37;12;10;
61760;PMS5003;47664;51.660;-0.100;2022-11-27T13:10:11;18;13;
61760;PMS5003;47664;51.660;-0.100;2022-11-27T13:12:49;21;14;
61760;PMS5003;47664;51.660;-0.100;2022-11-27T13:15:24;12;9;
61760;PMS5003;47664;51.660;-0.100;2022-11-27T13:17:59;17;12;
61760;PMS5003;47664;51.660;-0.100;2022-11-27T13:20:35;11;6;
61760;PMS5003;47664;51.660;-0.100;2022-11-27T13:23:08;10;7;
61760;PMS5003;47664;51.660;-0.100;2022-11-27T13:25:41;7;7;
61760;PMS5003;47664;51.660;-0.100;2022-11-27T13:28:18;9;7;
61760;PMS5003;47664;51.660;-0.100;2022-11-27T13:30:52;7;6;
61760;PMS5003;47664;51.660;-0.100;2022-11-27T13:33:29;7;5;
61760;PMS5003;47664;51.660;-0.100;2022-11-27T13:36:01;7;5;
61760;PMS5003;47664;51.660;-0.100;2022-11-27T13:38:44;8;7;
61760;PMS5003;47664;51.660;-0.100;2022-11-27T13:41:20;7;7;
61760;PMS5003;47664;51.660;-0.100;2022-11-27T13:43:57;10;7;
61760;PMS5003;47664;51.660;-0.100;2022-11-27T13:46:30;9;9;
61760;PMS5003;47664;51.660;-0.100;2022-11-27T13:49:16;9;8;
61760;PMS5003;47664;51.660;-0.100;2022-11-27T13:51:50;11;7;
61760;PMS5003;47664;51.660;-0.100;2022-11-27T13:54:30;6;6;
61760;PMS5003;47664;51.660;-0.100;2022-11-27T13:57:12;8;5;
61760;PMS5003;47664;51.660;-0.100;2022-11-27T13:59:53;7;5;
61760;PMS5003;47664;51.660;-0.100;2022-11-27T14:02:22;5;4;
61760;PMS5003;47664;51.660;-0.100;2022-11-27T14:05:05;10;9;
61760;PMS5003;47664;51.660;-0.100;2022-11-27T14:07:40;4;4;
61760;PMS5003;47664;51.660;-0.100;2022-11-27T14:10:15;7;6;
61760;PMS5003;47664;51.660;-0.100;2022-11-27T14:12:51;13;11;
61760;PMS5003;47664;51.660;-0.100;2022-11-27T14:15:25;10;10;
61760;PMS5003;47664;51.660;-0.100;2022-11-27T14:18:04;9;5;
61760;PMS5003;47664;51.660;-0.100;2022-11-27T14:20:44;15;9;
61760;PMS5003;47664;51.660;-0.100;2022-11-27T14:23:14;12;10;
61760;PMS5003;47664;51.660;-0.100;2022-11-27T14:25:59;10;6;
61760;PMS5003;47664;51.660;-0.100;2022-11-27T14:28:28;9;7;
61760;PMS5003;47664;51.660;-0.100;2022-11-27T14:31:02;7;7;
61760;PMS5003;47664;51.660;-0.100;2022-11-27T14:33:46;9;9;
61760;PMS5003;47664;51.660;-0.100;2022-11-27T14:36:21;10;8;
61760;PMS5003;47664;51.660;-0.100;2022-11-27T14:38:50;10;7;
61760;PMS5003;47664;51.660;-0.100;2022-11-27T14:41:24;9;9;
61760;PMS5003;47664;51.660;-0.100;2022-11-27T14:43:58;6;4;
61760;PMS5003;47664;51.660;-0.100;2022-11-27T14:46:32;7;7;
61760;PMS5003;47664;51.660;-0.100;2022-11-27T14:49:14;8;8;
61760;PMS5003;47664;51.660;-0.100;2022-11-27T14:51:43;8;8;
61760;PMS5003;47664;51.660;-0.100;2022-11-27T14:54:17;10;7;
61760;PMS5003;47664;51.660;-0.100;2022-11-27T14:56:49;8;7;
61760;PMS5003;47664;51.660;-0.100;2022-11-27T14:59:23;10;6;
61760;PMS5003;47664;51.660;-0.100;2022-11-27T15:01:57;14;7;
61760;PMS5003;47664;51.660;-0.100;2022-11-27T15:04:43;11;8;
61760;PMS5003;47664;51.660;-0.100;2022-11-27T15:07:16;10;8;
61760;PMS5003;47664;51.660;-0.100;2022-11-27T15:09:54;13;10;
61760;PMS5003;47664;51.660;-0.100;2022-11-27T15:12:28;15;8;
61760;PMS5003;47664;51.660;-0.100;2022-11-27T15:15:05;12;10;
61760;PMS5003;47664;51.660;-0.100;2022-11-27T15:17:44;11;10;
61760;PMS5003;47664;51.660;-0.100;2022-11-27T15:20:20;12;8;
61760;PMS5003;47664;51.660;-0.100;2022-11-27T15:22:59;6;6;
61760;PMS5003;47664;51.660;-0.100;2022-11-27T15:25:41;12;8;
61760;PMS5003;47664;51.660;-0.100;2022-11-27T15:28:22;11;8;
61760;PMS5003;47664;51.660;-0.100;2022-11-27T15:30:54;10;9;
61760;PMS5003;47664;51.660;-0.100;2022-11-27T15:33:28;11;8;
61760;PMS5003;47664;51.660;-0.100;2022-11-27T15:36:13;11;6;
61760;PMS5003;47664;51.660;-0.100;2022-11-27T15:38:42;7;5;
61760;PMS5003;47664;51.660;-0.100;2022-11-27T15:41:17;11;4;
61760;PMS5003;47664;51.660;-0.100;2022-11-27T15:43:46;5;5;
61760;PMS5003;47664;51.660;-0.100;2022-11-27T15:46:21;7;4;
61760;PMS5003;47664;51.660;-0.100;2022-11-27T15:48:51;8;6;
61760;PMS5003;47664;51.660;-0.100;2022-11-27T15:51:24;10;6;
61760;PMS5003;47664;51.660;-0.100;2022-11-27T15:53:56;9;6;
61760;PMS5003;47664;51.660;-0.100;2022-11-27T15:56:28;10;7;
61760;PMS5003;47664;51.660;-0.100;2022-11-27T15:59:00;11;6;
61760;PMS5003;47664;51.660;-0.100;2022-11-27T16:01:33;12;12;
61760;PMS5003;47664;51.660;-0.100;2022-11-27T16:04:04;8;8;
61760;PMS5003;47664;51.660;-0.100;2022-11-27T16:06:37;16;13;
61760;PMS5003;47664;51.660;-0.100;2022-11-27T16:09:09;7;6;
61760;PMS5003;47664;51.660;-0.100;2022-11-27T16:11:41;9;7;
61760;PMS5003;47664;51.660;-0.100;2022-11-27T16:14:13;10;6;
61760;PMS5003;47664;51.660;-0.100;2022-11-27T16:16:45;13;10;
61760;PMS5003;47664;51.660;-0.100;2022-11-27T16:19:17;9;7;
61760;PMS5003;47664;51.660;-0.100;2022-11-27T16:21:49;7;6;
61760;PMS5003;47664;51.660;-0.100;2022-11-27T16:24:22;11;10;
61760;PMS5003;47664;51.660;-0.100;2022-11-27T16:26:55;14;8;
61760;PMS5003;47664;51.660;-0.100;2022-11-27T16:29:27;9;8;
61760;PMS5003;47664;51.660;-0.100;2022-11-27T16:31:59;4;4;
61760;PMS5003;47664;51.660;-0.100;2022-11-27T16:34:31;11;6;
61760;PMS5003;47664;51.660;-0.100;2022-11-27T16:37:03;13;10;
61760;PMS5003;47664;51.660;-0.100;2022-11-27T16:39:35;3;3;
61760;PMS5003;47664;51.660;-0.100;2022-11-27T16:42:07;11;6;
61760;PMS5003;47664;51.660;-0.100;2022-11-27T16:44:39;7;5;
61760;PMS5003;47664;51.660;-0.100;2022-11-27T16:47:12;7;5;
61760;PMS5003;47664;51.660;-0.100;2022-11-27T16:49:44;11;10;
61760;PMS5003;47664;51.660;-0.100;2022-11-27T16:52:19;10;6;
61760;PMS5003;47664;51.660;-0.100;2022-11-27T16:54:52;14;9;
61760;PMS5003;47664;51.660;-0.100;2022-11-27T16:57:25;10;5;
61760;PMS5003;47664;51.660;-0.100;2022-11-27T16:59:57;12;8;
61760;PMS5003;47664;51.660;-0.100;2022-11-27T17:02:29;22;9;
61760;PMS5003;47664;51.660;-0.100;2022-11-27T17:05:02;10;9;
61760;PMS5003;47664;51.660;-0.100;2022-11-27T17:07:34;15;7;
61760;PMS5003;47664;51.660;-0.100;2022-11-27T17:10:07;13;9;
61760;PMS5003;47664;51.660;-0.100;2022-11-27T17:12:39;9;7;